TSP Talk
logout   logout
Contact Us | Logout
     
February 20, 2017, 6:36 am (ET / EDT)
TSP Talk Market Comments TSP AutoTracker Premiums Site Map TSP Funds Forum Returns

                 
Tracker Main Menu | Tracker Member Menu | My IFT Records | How to Get Started | Email Updates
                 

Members ranking and current allocation as of: 2017-02-17 (COB)

Press Go back to the previous page   

View a specific date "yyyy-mm-dd"

Underlined column headings can be sorted
Rank Username YTD Returns MTD Returns Start Date
1 LAT 7.04 % 2.96 % 2017-01-01
2 GenStar 6.65 % 3.26 % 2017-01-01
3 bdmkg 6.57 % 3.21 % 2017-01-01
4 bkc2a 6.44 % 2.96 % 2017-01-01
5 Mista_Magee 6.12 % 2.81 % 2017-01-01
6 retire15 6.08 % 3.23 % 2017-01-01
7 texcc 5.94 % 2.96 % 2017-01-01
8 3days 5.63 % 2.04 % 2017-01-01
9 bjean 5.60 % 1.13 % 2017-01-01
10 smitmw 5.59 % 3.36 % 2017-01-01
11 Aviator_Guy 5.57 % 2.80 % 2017-01-01
12 Jayeks 5.55 % 2.59 % 2017-01-01
13 ILoveTDs 5.54 % 2.96 % 2017-01-01
14 BigJohn 5.50 % 2.30 % 2017-01-01
15 cmccall661 5.43 % 2.96 % 2017-01-01
16 maverick06 5.41 % 3.24 % 2017-01-01
17 dave 5.39 % 2.96 % 2017-01-01
18 kraplrak 5.36 % 2.21 % 2017-01-01
19 tom1tom1 5.34 % 1.41 % 2017-01-01
20 xsoljuhxpnoi929 5.32 % 3.36 % 2017-01-01
21 BigMike 5.32 % 3.36 % 2017-01-01
22 C-fund 5.32 % 3.36 % 2017-01-01
23 berg1315 5.32 % ** 3.36 % 2017-01-01
24 Kayakfish 5.32 % ** 3.36 % 2017-01-01
25 JTH 5.32 % ** 3.36 % 2017-01-01
26 JTH-ALPAFS 5.32 % ** 3.36 % 2017-01-01
27 JTH-ESD 5.32 % ** 3.36 % 2017-01-01
28 MMAC_POPS 5.32 % ** 3.36 % 2017-01-01
29 cthomas946 5.32 % ** 3.36 % 2017-01-01
30 agogley 5.32 % ** 3.36 % 2017-01-01
31 ken863 5.32 % ** 3.36 % 2017-01-01
32 brobrash 5.32 % ** 3.36 % 2017-01-01
33 ranma143 5.32 % ** 3.36 % 2017-01-01
34 Lucky91 5.32 % ** 3.36 % 2017-01-01
35 Mack-Daddy 5.32 % ** 3.36 % 2017-01-01
36 Sarchie 5.32 % ** 3.36 % 2017-01-01
37 Devilduck 5.32 % ** 3.36 % 2017-01-01
38 HotRod 5.32 % ** 3.36 % 2017-01-01
39 Jrgruters42 5.32 % ** 3.36 % 2017-01-01
40 BLPinDC 5.32 % ** 3.36 % 2017-01-01
41 CheckRaze 5.32 % ** 3.36 % 2017-01-01
42 Heisenberg 5.32 % ** 3.36 % 2017-01-01
43 jssmith58 5.32 % ** 3.36 % 2017-01-01
44 leadoff2 5.32 % ** 3.36 % 2017-01-01
45 MadMoneyJesse 5.32 % ** 3.36 % 2017-01-01
46 melandblue 5.32 % ** 3.36 % 2017-01-01
47 mepage 5.32 % ** 3.36 % 2017-01-01
48 messimoves 5.32 % ** 3.36 % 2017-01-01
49 MOVINUP 5.32 % ** 3.36 % 2017-01-01
50 pcola5625 5.32 % ** 3.36 % 2017-01-01
Rank Username YTD Returns MTD Returns Start Date
51 ShadowAx 5.32 % ** 3.36 % 2017-01-01
52 Sirius 5.32 % ** 3.36 % 2017-01-01
53 squid3326 5.32 % ** 3.36 % 2017-01-01
54 TheRealEDtheFED 5.32 % ** 3.36 % 2017-01-01
55 martycox88 5.31 % 2.96 % 2017-01-01
56 vexter 5.29 % 3.33 % 2017-01-01
57 almostdone 5.29 % ** 3.26 % 2017-01-01
58 bcf0514 5.29 % ** 3.26 % 2017-01-01
59 glysergt 5.28 % 3.24 % 2017-01-01
60 Craigart 5.28 % ** 3.24 % 2017-01-01
61 GWXX 5.28 % ** 3.24 % 2017-01-01
62 sjcook23 5.27 % 3.05 % 2017-01-01
63 rookiecsi 5.27 % 2.96 % 2017-01-01
64 trobbi33 5.27 % 3.22 % 2017-01-01
65 Widget 5.27 % ** 3.20 % 2017-01-01
66 garrisoco 5.27 % ** 3.20 % 2017-01-01
67 Piniquim 5.27 % ** 3.20 % 2017-01-01
68 shagerty 5.27 % ** 3.20 % 2017-01-01
69 Total_US_Market 5.27 % ** 3.20 % 2017-01-01
70 rotti 5.27 % ** 3.20 % 2017-01-01
71 dcmorgan 5.27 % ** 3.20 % 2017-01-01
72 Scarfinger68 5.26 % 3.20 % 2017-01-01
73 Boots22 5.26 % ** 3.20 % 2017-01-01
74 DakotaKid 5.26 % ** 3.20 % 2017-01-01
75 Rod 5.26 % ** 3.19 % 2017-01-01
76 packerbart 5.25 % 3.16 % 2017-01-01
77 Sandbagger6 5.25 % 3.16 % 2017-01-01
78 silver2828 5.25 % 3.16 % 2017-01-01
79 OhioOkie 5.25 % 3.15 % 2017-01-01
80 rangerray 5.25 % 3.16 % 2017-01-01
81 jamilaunc 5.25 % 3.16 % 2017-01-01
82 25or6to4 5.25 % 3.16 % 2017-01-01
83 TSP-roulette 5.25 % 3.15 % 2017-01-01
84 evob 5.25 % 3.16 % 2017-01-01
85 arhodie 5.25 % 3.16 % 2017-01-01
86 Viva_La_Migra 5.25 % 3.16 % 2017-01-01
87 dunedad 5.25 % 3.16 % 2017-01-01
88 CapnEddie 5.25 % 2.96 % 2017-01-01
89 OBGibby 5.25 % 3.16 % 2017-01-01
90 pcalderin 5.25 % 3.16 % 2017-01-01
91 Bfejeran 5.25 % 3.16 % 2017-01-01
92 Class 5.25 % ** 3.16 % 2017-01-01
93 SPN46er 5.25 % ** 3.16 % 2017-01-01
94 SSJodon 5.25 % ** 3.16 % 2017-01-01
95 inyadreems 5.25 % ** 3.15 % 2017-01-01
96 poolman 5.25 % ** 3.16 % 2017-01-01
97 RWJorg 5.25 % ** 3.16 % 2017-01-01
98 goforit 5.25 % ** 3.15 % 2017-01-01
99 kbennet1 5.25 % ** 3.15 % 2017-01-01
100 8_percent 5.25 % ** 3.15 % 2017-01-01
Rank Username YTD Returns MTD Returns Start Date
101 scubasteve1 5.25 % ** 3.15 % 2017-01-01
102 tlap612 5.25 % ** 3.15 % 2017-01-01
103 MYDOGZCUTE 5.25 % ** 3.15 % 2017-01-01
104 rossbrian00 5.25 % ** 3.15 % 2017-01-01
105 elufints 5.25 % ** 3.15 % 2017-01-01
106 JG2017 5.25 % ** 3.15 % 2017-01-01
107 Stony 5.25 % ** 3.15 % 2017-01-01
108 surftec 5.25 % ** 3.15 % 2017-01-01
109 RAMORIPKIN 5.25 % ** 3.16 % 2017-01-01
110 Rumpelstilzchen 5.25 % ** 3.16 % 2017-01-01
111 tgun 5.25 % ** 3.15 % 2017-01-01
112 vbbikerbums 5.25 % ** 3.16 % 2017-01-01
113 SkyPilot 5.25 % ** 3.16 % 2017-01-01
114 MoneyManager 5.25 % ** 3.17 % 2017-01-01
115 KneednDough 5.25 % ** 3.16 % 2017-01-01
116 bettertrader 5.25 % ** 3.16 % 2017-01-01
117 bubba71842 5.25 % ** 3.16 % 2017-01-01
118 Ddarko 5.25 % ** 3.16 % 2017-01-01
119 divemonkey 5.25 % ** 3.16 % 2017-01-01
120 future 5.25 % ** 3.16 % 2017-01-01
121 HocusPocus 5.25 % ** 3.16 % 2017-01-01
122 jpaulhus 5.25 % ** 3.16 % 2017-01-01
123 Raxser 5.25 % ** 3.16 % 2017-01-01
124 retire2017 5.25 % ** 3.16 % 2017-01-01
125 SuzinCity 5.25 % ** 3.16 % 2017-01-01
126 tmntrc56 5.25 % ** 3.14 % 2017-01-01
127 valions15 5.25 % ** 3.16 % 2017-01-01
128 Lucas123 5.25 % ** 3.16 % 2017-01-01
129 weigerber55 5.25 % ** 3.16 % 2017-01-01
130 rivs 5.25 % ** 3.16 % 2017-01-01
131 drgonzo58 5.25 % ** 3.16 % 2017-01-01
132 sparty83 5.24 % 3.12 % 2017-01-01
133 SKIPPER 5.24 % 3.45 % 2017-01-01
134 Niner49er52 5.24 % ** 3.12 % 2017-01-01
135 Wizard_of_Oz 5.24 % ** 3.14 % 2017-01-01
136 1Mech 5.24 % ** 3.12 % 2017-01-01
137 puppylove 5.24 % ** 3.13 % 2017-01-01
138 rwwjr65 5.24 % ** 3.11 % 2017-01-01
139 kibey84 5.24 % ** 3.12 % 2017-01-01
140 TSPBrett 5.24 % ** 3.12 % 2017-01-01
141 DoughBoy 5.24 % ** 3.12 % 2017-01-01
142 Gain10 5.24 % ** 3.12 % 2017-01-01
143 joharo 5.24 % ** 3.12 % 2017-01-01
144 Benny7563 5.23 % 3.12 % 2017-01-01
145 itsRaining 5.23 % ** 3.11 % 2017-01-01
146 pdug 5.22 % 3.06 % 2017-01-01
147 Tubman83 5.22 % 3.08 % 2017-01-01
148 jsmiles 5.22 % 2.85 % 2017-01-01
149 smiles 5.22 % 2.85 % 2017-01-01
150 Unmanned 5.22 % 3.08 % 2017-01-01
Rank Username YTD Returns MTD Returns Start Date
151 EricDeLee 5.22 % 3.08 % 2017-01-01
152 Bullseye 5.22 % 3.06 % 2017-01-01
153 Barney 5.22 % ** 3.06 % 2017-01-01
154 revel 5.22 % ** 3.08 % 2017-01-01
155 stacks 5.22 % ** 3.08 % 2017-01-01
156 Kafkaesquee 5.22 % ** 3.07 % 2017-01-01
157 invisiblebutterknife 5.22 % ** 3.15 % 2017-01-01
158 Burt 5.22 % ** 3.06 % 2017-01-01
159 savagemojo 5.22 % ** 3.06 % 2017-01-01
160 Awsum_Al 5.22 % ** 3.08 % 2017-01-01
161 Sign_Stealer 5.21 % 2.96 % 2017-01-01
162 markopolno12 5.21 % ** 3.04 % 2017-01-01
163 Skooby 5.20 % 3.11 % 2017-01-01
164 SWAVET 5.19 % 2.96 % 2017-01-01
165 WallStreet 5.19 % ** 3.06 % 2017-01-01
166 rbizz 5.18 % 2.96 % 2017-01-01
167 Shamus13 5.18 % 2.96 % 2017-01-01
168 48cj2a 5.18 % 2.96 % 2017-01-01
169 freemanick 5.18 % 2.96 % 2017-01-01
170 marco59 5.18 % 2.96 % 2017-01-01
171 phlames 5.18 % 2.96 % 2017-01-01
172 TXTornados 5.18 % 2.96 % 2017-01-01
173 Christopher 5.18 % 2.96 % 2017-01-01
174 craigerv 5.18 % 2.96 % 2017-01-01
175 jmtz54 5.18 % 2.96 % 2017-01-01
176 40calSue 5.18 % 2.96 % 2017-01-01
177 Brinky 5.18 % 2.96 % 2017-01-01
178 rothnroll 5.18 % 2.96 % 2017-01-01
179 steve10608 5.18 % 2.96 % 2017-01-01
180 ckeiththeman 5.18 % 2.96 % 2017-01-01
181 krash9561 5.18 % 2.96 % 2017-01-01
182 Babygirl07 5.18 % 2.96 % 2017-01-01
183 ArchAngel 5.18 % 2.96 % 2017-01-01
184 chemmie 5.18 % 2.96 % 2017-01-01
185 KyFan1 5.18 % 2.96 % 2017-01-01
186 LMBF1-CI>S 5.18 % 2.96 % 2017-01-01
187 TraderJane 5.18 % 2.96 % 2017-01-01
188 madchili 5.18 % 2.96 % 2017-01-01
189 Damndogs 5.18 % 2.96 % 2017-01-01
190 JVC1979 5.18 % 2.96 % 2017-01-01
191 UCFVern 5.18 % 2.96 % 2017-01-01
192 radarvector 5.18 % 2.96 % 2017-01-01
193 a1sauce 5.18 % 2.96 % 2017-01-01
194 moneymikem 5.18 % 2.96 % 2017-01-01
195 BrkBred247 5.18 % 2.96 % 2017-01-01
196 Peteylaw06 5.18 % 2.96 % 2017-01-01
197 ccarrolls 5.18 % 2.96 % 2017-01-01
198 kcfz0t 5.18 % 2.96 % 2017-01-01
199 MaStA 5.18 % 2.96 % 2017-01-01
200 philcam 5.18 % 2.96 % 2017-01-01
Rank Username YTD Returns MTD Returns Start Date
201 SPOT_LT 5.18 % 2.96 % 2017-01-01
202 ttn 5.18 % 2.96 % 2017-01-01
203 S-fund 5.18 % 2.96 % 2017-01-01
204 caseyd8s 5.18 % 2.96 % 2017-01-01
205 jmartello 5.18 % 2.96 % 2017-01-01
206 n.shift 5.18 % 2.96 % 2017-01-01
207 b52vqn 5.18 % 2.96 % 2017-01-01
208 mikepriest 5.18 % 2.96 % 2017-01-01
209 Cactus 5.18 % ** 2.96 % 2017-01-01
210 Cashflow911 5.18 % ** 2.96 % 2017-01-01
211 FatMan 5.18 % ** 2.96 % 2017-01-01
212 Reggie0622 5.18 % ** 2.96 % 2017-01-01
213 jwblanfo 5.18 % ** 2.96 % 2017-01-01
214 RX-7 5.18 % ** 2.96 % 2017-01-01
215 Bullet 5.18 % ** 2.96 % 2017-01-01
216 mxtwo50r 5.18 % ** 2.96 % 2017-01-01
217 dseery3 5.18 % ** 2.96 % 2017-01-01
218 jerodt 5.18 % ** 2.96 % 2017-01-01
219 soupyBeard 5.18 % ** 2.96 % 2017-01-01
220 spantzer 5.18 % ** 2.96 % 2017-01-01
221 HarleyLar 5.18 % ** 2.96 % 2017-01-01
222 jbvollmer 5.18 % ** 2.96 % 2017-01-01
223 adestonobis 5.18 % ** 2.96 % 2017-01-01
224 bylow-cellhi 5.18 % ** 2.96 % 2017-01-01
225 kodaq2001 5.18 % ** 2.96 % 2017-01-01
226 thinkman 5.18 % ** 2.96 % 2017-01-01
227 coop65 5.18 % ** 2.96 % 2017-01-01
228 sdidieu 5.18 % ** 3.07 % 2017-01-01
229 canmannc 5.18 % ** 2.96 % 2017-01-01
230 geargirl 5.18 % ** 2.96 % 2017-01-01
231 captjamied 5.18 % ** 2.96 % 2017-01-01
232 Bettinainc 5.18 % ** 2.96 % 2017-01-01
233 Woodys_World 5.18 % ** 2.96 % 2017-01-01
234 jetjammr 5.18 % ** 2.96 % 2017-01-01
235 68chevy 5.18 % ** 2.96 % 2017-01-01
236 G-Money 5.18 % ** 2.96 % 2017-01-01
237 sythbpr 5.18 % ** 2.96 % 2017-01-01
238 nightman 5.18 % ** 2.96 % 2017-01-01
239 Aiagib 5.18 % ** 2.96 % 2017-01-01
240 MahiChaser 5.18 % ** 2.96 % 2017-01-01
241 eshore07 5.18 % ** 2.96 % 2017-01-01
242 ILTDtechnical 5.18 % ** 2.96 % 2017-01-01
243 Sensei 5.18 % ** 2.96 % 2017-01-01
244 scaredstiff 5.18 % ** 2.96 % 2017-01-01
245 rallythis 5.18 % ** 2.96 % 2017-01-01
246 workdamnit 5.18 % ** 3.03 % 2017-01-01
247 kleios 5.18 % ** 2.96 % 2017-01-01
248 walterramjet 5.18 % ** 2.96 % 2017-01-01
249 RabbiTuckman 5.18 % ** 2.96 % 2017-01-01
250 Dexter 5.18 % ** 2.96 % 2017-01-01
Rank Username YTD Returns MTD Returns Start Date
251 gronk007 5.18 % ** 2.96 % 2017-01-01
252 BReine13 5.18 % ** 2.96 % 2017-01-01
253 DylanFan 5.18 % ** 2.96 % 2017-01-01
254 mollshark 5.18 % ** 2.96 % 2017-01-01
255 recki13 5.18 % ** 2.96 % 2017-01-01
256 kawzman 5.18 % ** 2.96 % 2017-01-01
257 NavyEng 5.18 % ** 2.96 % 2017-01-01
258 NiteFlyer 5.18 % ** 2.96 % 2017-01-01
259 sniper 5.18 % ** 2.96 % 2017-01-01
260 Uptrend 5.18 % ** 2.96 % 2017-01-01
261 Legend 5.18 % ** 2.96 % 2017-01-01
262 Hank2 5.18 % ** 2.96 % 2017-01-01
263 barryc 5.18 % ** 2.96 % 2017-01-01
264 HookemDanno 5.18 % ** 2.96 % 2017-01-01
265 vdubya 5.18 % ** 2.96 % 2017-01-01
266 Dave98 5.18 % ** 2.96 % 2017-01-01
267 applejack 5.18 % ** 2.96 % 2017-01-01
268 D_Brown 5.18 % ** 2.96 % 2017-01-01
269 Piesanders 5.18 % ** 2.96 % 2017-01-01
270 uphan 5.18 % ** 2.96 % 2017-01-01
271 Cmarq2k2 5.18 % ** 2.96 % 2017-01-01
272 ReverendHerc 5.18 % ** 2.96 % 2017-01-01
273 antauz 5.18 % ** 2.96 % 2017-01-01
274 horseman 5.18 % ** 2.96 % 2017-01-01
275 Racerx919 5.18 % ** 2.96 % 2017-01-01
276 SPUR 5.18 % ** 2.96 % 2017-01-01
277 uscs344 5.18 % ** 2.96 % 2017-01-01
278 1953greg 5.18 % ** 2.96 % 2017-01-01
279 5hundy 5.18 % ** 2.96 % 2017-01-01
280 accountant02130 5.18 % ** 2.96 % 2017-01-01
281 albwrong 5.18 % ** 2.96 % 2017-01-01
282 andercee 5.18 % ** 2.96 % 2017-01-01
283 Asylum 5.18 % ** 2.96 % 2017-01-01
284 barb41048 5.18 % ** 2.96 % 2017-01-01
285 BichonFreeze 5.18 % ** 2.96 % 2017-01-01
286 bigcat61 5.18 % ** 2.96 % 2017-01-01
287 bluecrab 5.18 % ** 2.96 % 2017-01-01
288 bobmarley753 5.18 % ** 2.96 % 2017-01-01
289 BP171 5.18 % ** 2.96 % 2017-01-01
290 Bravos_Time! 5.18 % ** 2.96 % 2017-01-01
291 bucket 5.18 % ** 2.96 % 2017-01-01
292 ccharsh22 5.18 % ** 2.96 % 2017-01-01
293 Dalz 5.18 % ** 2.96 % 2017-01-01
294 Dartman 5.18 % ** 2.96 % 2017-01-01
295 delldell 5.18 % ** 2.96 % 2017-01-01
296 dojdave 5.18 % ** 2.96 % 2017-01-01
297 DonKeyhote 5.18 % ** 2.96 % 2017-01-01
298 Dsots 5.18 % ** 2.96 % 2017-01-01
299 elinca 5.18 % ** 2.96 % 2017-01-01
300 engr_villa 5.18 % ** 2.96 % 2017-01-01
Rank Username YTD Returns MTD Returns Start Date
301 ericwinn 5.18 % ** 2.96 % 2017-01-01
302 FISHHEADS 5.18 % ** 2.96 % 2017-01-01
303 flipman 5.18 % ** 2.96 % 2017-01-01
304 gagobutos 5.18 % ** 2.96 % 2017-01-01
305 gdraft 5.18 % ** 2.96 % 2017-01-01
306 hardyandtiny 5.18 % ** 2.96 % 2017-01-01
307 Howanic 5.18 % ** 2.96 % 2017-01-01
308 Jagman26 5.18 % ** 2.96 % 2017-01-01
309 Jaygoots 5.18 % ** 2.96 % 2017-01-01
310 Jimmys_Girl 5.18 % ** 2.96 % 2017-01-01
311 Kotcha 5.18 % ** 3.01 % 2017-01-01
312 Kylee 5.18 % ** 2.96 % 2017-01-01
313 ldrltjg 5.18 % ** 2.96 % 2017-01-01
314 lestampoc 5.18 % ** 2.96 % 2017-01-01
315 liquidh2o 5.18 % ** 2.96 % 2017-01-01
316 Magic 5.18 % ** 2.96 % 2017-01-01
317 marcusg 5.18 % ** 2.96 % 2017-01-01
318 martypantsss 5.18 % ** 2.96 % 2017-01-01
319 mikrodojr 5.18 % ** 2.96 % 2017-01-01
320 minhan_1408 5.18 % ** 2.96 % 2017-01-01
321 mrfishing 5.18 % ** 2.96 % 2017-01-01
322 Mr_Mojo_Rising 5.18 % ** 2.96 % 2017-01-01
323 mustbev 5.18 % ** 2.96 % 2017-01-01
324 NationalGuard 5.18 % ** 2.96 % 2017-01-01
325 navgod34 5.18 % ** 2.96 % 2017-01-01
326 Newbie 5.18 % ** 2.96 % 2017-01-01
327 nnewman 5.18 % ** 2.96 % 2017-01-01
328 pops 5.18 % ** 2.96 % 2017-01-01
329 pwagner3md 5.18 % ** 2.96 % 2017-01-01
330 rabbithimself 5.18 % ** 2.96 % 2017-01-01
331 Revanshill 5.18 % ** 2.96 % 2017-01-01
332 Rifleman 5.18 % ** 2.96 % 2017-01-01
333 rwmiller50 5.18 % ** 2.96 % 2017-01-01
334 sball.ca 5.18 % ** 2.96 % 2017-01-01
335 SeaOtter 5.18 % ** 2.96 % 2017-01-01
336 shelby642 5.18 % ** 2.96 % 2017-01-01
337 shoeboxgorilla 5.18 % ** 2.96 % 2017-01-01
338 skbn 5.18 % ** 2.96 % 2017-01-01
339 skid-kid 5.18 % ** 2.96 % 2017-01-01
340 Snake1b4 5.18 % ** 2.96 % 2017-01-01
341 SPANK550 5.18 % ** 2.96 % 2017-01-01
342 SR101 5.18 % ** 2.96 % 2017-01-01
343 TaillightMafia 5.18 % ** 2.96 % 2017-01-01
344 taronsr 5.18 % ** 2.96 % 2017-01-01
345 tekpc2k2 5.18 % ** 2.96 % 2017-01-01
346 theScientist 5.18 % ** 2.96 % 2017-01-01
347 tlmathe 5.18 % ** 2.96 % 2017-01-01
348 trwill7172 5.18 % ** 2.96 % 2017-01-01
349 victoria 5.18 % ** 2.96 % 2017-01-01
350 vintage53 5.18 % ** 2.96 % 2017-01-01
Rank Username YTD Returns MTD Returns Start Date
351 wolfpup77 5.18 % ** 2.96 % 2017-01-01
352 Wulfie 5.18 % ** 2.96 % 2017-01-01
353 wsureshoot 5.18 % ** 2.96 % 2017-01-01
354 drewcifer 5.18 % ** 2.96 % 2017-01-01
355 snwbrdr397 5.18 % ** 2.96 % 2017-01-01
356 Handballer 5.18 % ** 2.96 % 2017-01-01
357 Steelhead 5.18 % ** 2.96 % 2017-01-01
358 wddolson 5.18 % ** 2.96 % 2017-01-01
359 DetroitLifer 5.18 % ** 2.96 % 2017-01-01
360 Crackon 5.18 % ** 2.96 % 2017-01-01
361 LMBF_Method 5.18 % ** 2.96 % 2017-01-01
362 rgncajun68 5.17 % ** 3.01 % 2017-01-01
363 bloodbath 5.17 % ** 3.03 % 2017-01-01
364 JimmyJoe 5.17 % ** 2.96 % 2017-01-01
365 Sniki 5.17 % ** 3.00 % 2017-01-01
366 urmomzbox 5.17 % ** 3.01 % 2017-01-01
367 usfwsduckriverman 5.17 % ** 3.03 % 2017-01-01
368 gaharris 5.16 % 2.94 % 2017-01-01
369 BigLair 5.16 % 3.16 % 2017-01-01
370 andy 5.16 % ** 3.04 % 2017-01-01
371 eecscoder 5.16 % ** 2.97 % 2017-01-01
372 Short 5.15 % ** 2.98 % 2017-01-01
373 Big_Sarge 5.14 % 2.89 % 2017-01-01
374 trudger 5.14 % 2.92 % 2017-01-01
375 rch8710 5.14 % ** 2.97 % 2017-01-01
376 CRUSHER 5.14 % ** 2.98 % 2017-01-01
377 pokerstar629 5.13 % 2.46 % 2017-01-01
378 iyoung 5.13 % ** 2.89 % 2017-01-01
379 dodgerblioux 5.12 % ** 2.94 % 2017-01-01
380 dtrax 5.12 % ** 2.90 % 2017-01-01
381 wwwtractor 5.11 % ** 2.92 % 2017-01-01
382 BessMan94 5.11 % ** 2.89 % 2017-01-01
383 evimoore 5.11 % ** 2.88 % 2017-01-01
384 ijmurray 5.11 % ** 2.83 % 2017-01-01
385 PIC153BD 5.10 % ** 2.88 % 2017-01-01
386 Ghageman 5.10 % ** 2.88 % 2017-01-01
387 IceJoe 5.10 % ** 2.85 % 2017-01-01
388 Macgyva 5.09 % ** 2.85 % 2017-01-01
389 BirchNWS 5.09 % ** 2.85 % 2017-01-01
390 tton 5.08 % 1.90 % 2017-01-01
391 asuasylum 5.08 % 2.86 % 2017-01-01
392 joehacker 5.08 % 3.06 % 2017-01-01
393 Elktracker 5.08 % ** 2.83 % 2017-01-01
394 Forecaster 5.08 % ** 2.84 % 2017-01-01
395 EdwardSF 5.08 % ** 2.84 % 2017-01-01
396 Spydercop 5.07 % 2.80 % 2017-01-01
397 redman1970 5.07 % ** 2.80 % 2017-01-01
398 Boozin1 5.07 % ** 2.79 % 2017-01-01
399 danie906 5.07 % ** 2.82 % 2017-01-01
400 furafura 5.07 % ** 2.81 % 2017-01-01
Rank Username YTD Returns MTD Returns Start Date
401 etawx 5.07 % ** 2.83 % 2017-01-01
402 petersons 5.06 % ** 2.78 % 2017-01-01
403 Knight25 5.06 % ** 2.78 % 2017-01-01
404 AzzySpazbourne 5.06 % ** 3.01 % 2017-01-01
405 bailemi 5.05 % 2.83 % 2017-01-01
406 jswright 5.05 % 2.75 % 2017-01-01
407 evchau 5.05 % ** 3.06 % 2017-01-01
408 cook79768 5.05 % ** 2.76 % 2017-01-01
409 fishhead 5.05 % ** 2.78 % 2017-01-01
410 sapfm 5.05 % ** 2.74 % 2017-01-01
411 Dorado 5.04 % 2.82 % 2017-01-01
412 brentmc 5.03 % ** 2.75 % 2017-01-01
413 lifeasrxd 5.03 % ** 2.75 % 2017-01-01
414 Clemso 5.03 % ** 2.68 % 2017-01-01
415 gsamx 5.03 % ** 2.68 % 2017-01-01
416 guahan96 5.03 % ** 2.73 % 2017-01-01
417 DigDugII 5.03 % ** 2.68 % 2017-01-01
418 noclue 5.02 % 2.72 % 2017-01-01
419 markmars 5.02 % ** 2.71 % 2017-01-01
420 Kong13 5.02 % ** 2.70 % 2017-01-01
421 spinslight1 5.02 % ** 2.70 % 2017-01-01
422 tshare999 5.02 % ** 2.72 % 2017-01-01
423 Renegade 5.01 % 2.69 % 2017-01-01
424 eddie3375 5.01 % 2.96 % 2017-01-01
425 Pill 5.01 % 2.68 % 2017-01-01
426 hg1866 5.01 % ** 2.70 % 2017-01-01
427 millstadt05 5.01 % ** 2.69 % 2017-01-01
428 cojo1988 5.01 % ** 2.69 % 2017-01-01
429 flashmanxx 5.01 % ** 2.70 % 2017-01-01
430 Supernova2033 5.01 % ** 2.63 % 2017-01-01
431 american42 5.00 % ** 2.68 % 2017-01-01
432 waveman43 5.00 % ** 2.67 % 2017-01-01
433 dctarheel 5.00 % ** 2.66 % 2017-01-01
434 deward 5.00 % ** 2.66 % 2017-01-01
435 Hodster 5.00 % ** 2.67 % 2017-01-01
436 Moore 5.00 % ** 2.68 % 2017-01-01
437 PICK68 5.00 % ** 2.67 % 2017-01-01
438 doge1976 4.99 % 2.90 % 2017-01-01
439 GFundBaby 4.99 % ** 2.66 % 2017-01-01
440 Skip 4.98 % 2.38 % 2017-01-01
441 goose 4.98 % 1.63 % 2017-01-01
442 dlb11693 4.98 % ** 2.62 % 2017-01-01
443 hawktecc1 4.98 % ** 2.64 % 2017-01-01
444 Highroller 4.97 % ** 2.80 % 2017-01-01
445 cwbys223 4.97 % ** 2.57 % 2017-01-01
446 jaks51 4.96 % ** 2.54 % 2017-01-01
447 Ozzy_357924 4.95 % 2.68 % 2017-01-01
448 krempajs 4.95 % 2.57 % 2017-01-01
449 Timberwoof 4.95 % ** 2.57 % 2017-01-01
450 Tot_Global_Mkt 4.95 % ** 2.59 % 2017-01-01
Rank Username YTD Returns MTD Returns Start Date
451 babydux 4.94 % 2.98 % 2017-01-01
452 arquintana 4.94 % ** 2.53 % 2017-01-01
453 crazyjames 4.93 % ** 2.60 % 2017-01-01
454 RV7 4.92 % 2.38 % 2017-01-01
455 martint4 4.92 % ** 2.83 % 2017-01-01
456 kmx23 4.92 % ** 2.82 % 2017-01-01
457 zegerst 4.91 % 2.55 % 2017-01-01
458 mschewy 4.91 % 2.33 % 2017-01-01
459 Cheng 4.91 % ** 2.50 % 2017-01-01
460 misg4420 4.91 % ** 2.48 % 2017-01-01
461 bombnav1 4.91 % ** 2.80 % 2017-01-01
462 rayald 4.89 % 2.30 % 2017-01-01
463 towncop1978 4.89 % 2.41 % 2017-01-01
464 BrandesValue 4.89 % 2.87 % 2017-01-01
465 aminze 4.89 % ** 2.42 % 2017-01-01
466 aeroconfigs 4.88 % 1.46 % 2017-01-01
467 william4x 4.88 % ** 2.92 % 2017-01-01
468 oOSupremeOo 4.87 % 2.93 % 2017-01-01
469 sigj 4.87 % 2.96 % 2017-01-01
470 Pittdog 4.86 % 2.75 % 2017-01-01
471 miyagi 4.86 % 3.05 % 2017-01-01
472 NotReally! 4.85 % 2.63 % 2017-01-01
473 mrtruckaudi 4.85 % 2.80 % 2017-01-01
474 lartra 4.85 % 2.32 % 2017-01-01
475 robertbr1963 4.84 % ** 2.40 % 2017-01-01
476 mpie72 4.84 % ** 2.88 % 2017-01-01
477 fluffypotato 4.83 % 2.77 % 2017-01-01
478 lbeeba8862 4.83 % ** 2.38 % 2017-01-01
479 mboja 4.83 % ** 2.30 % 2017-01-01
480 lawnman 4.83 % ** 2.31 % 2017-01-01
481 Sports_Night 4.83 % ** 2.34 % 2017-01-01
482 sonyctx 4.83 % ** 2.34 % 2017-01-01
483 soupykid 4.82 % 2.34 % 2017-01-01
484 1crazyfatboy 4.82 % ** 2.28 % 2017-01-01
485 CrgButcher 4.81 % 2.59 % 2017-01-01
486 kemphrunner 4.81 % 2.77 % 2017-01-01
487 mellowmoon 4.81 % 2.02 % 2017-01-01
488 gsrider 4.81 % 2.73 % 2017-01-01
489 grube00 4.81 % ** 2.59 % 2017-01-01
490 JPW77 4.81 % ** 2.27 % 2017-01-01
491 rebel346 4.80 % 2.81 % 2017-01-01
492 STCjUnKie 4.79 % ** 2.24 % 2017-01-01
493 bozdog 4.79 % ** 2.24 % 2017-01-01
494 lsutiger1985 4.79 % ** 2.86 % 2017-01-01
495 rdsox05 4.79 % ** 2.23 % 2017-01-01
496 mosicki 4.77 % ** 2.82 % 2017-01-01
497 thebreen 4.76 % 2.18 % 2017-01-01
498 Rico69 4.76 % ** 2.17 % 2017-01-01
499 Jane 4.75 % 2.81 % 2017-01-01
500 sage 4.75 % ** 2.77 % 2017-01-01
Rank Username YTD Returns MTD Returns Start Date
501 jason011235813 4.74 % ** 2.51 % 2017-01-01
502 Lester130 4.73 % 2.18 % 2017-01-01
503 ksklmiller 4.73 % ** 2.63 % 2017-01-01
504 nicole5001 4.72 % ** 2.82 % 2017-01-01
505 Hamhocs 4.71 % 1.98 % 2017-01-01
506 temptec 4.71 % ** 2.43 % 2017-01-01
507 dunwichman 4.71 % ** 2.08 % 2017-01-01
508 badgerland 4.71 % ** 2.73 % 2017-01-01
509 ksteiner560 4.68 % 2.64 % 2017-01-01
510 sarriola 4.68 % ** 2.49 % 2017-01-01
511 Tamjay74 4.68 % ** 2.66 % 2017-01-01
512 Andeano 4.67 % ** 2.66 % 2017-01-01
513 Jqsomera 4.66 % ** 2.76 % 2017-01-01
514 RookieInvestor 4.66 % ** 2.78 % 2017-01-01
515 shaner19er 4.66 % ** 2.63 % 2017-01-01
516 buckeyefan201 4.65 % ** 2.58 % 2017-01-01
517 cyoa1fan 4.64 % 2.83 % 2017-01-01
518 Birchtree 4.63 % ** 1.96 % 2017-01-01
519 texaggies89 4.62 % 2.08 % 2017-01-01
520 fedgolfer 4.62 % 1.26 % 2017-01-01
521 jdeacon 4.61 % 2.68 % 2017-01-01
522 saxman 4.60 % ** 2.82 % 2017-01-01
523 Roddhsi 4.57 % 2.61 % 2017-01-01
524 justbidinmytime 4.57 % 2.22 % 2017-01-01
525 flyoa1 4.57 % 3.08 % 2017-01-01
526 Mustangmoose302 4.57 % 2.17 % 2017-01-01
527 tsclippinger 4.57 % ** 2.52 % 2017-01-01
528 Beamer 4.56 % 2.44 % 2017-01-01
529 paperbitch 4.55 % ** 2.61 % 2017-01-01
530 BigBully 4.54 % 2.34 % 2017-01-01
531 Markster70 4.53 % ** 2.76 % 2017-01-01
532 Beacher1 4.52 % 2.96 % 2017-01-01
533 Jetpowered78 4.52 % 2.51 % 2017-01-01
534 cbp03 4.51 % ** 2.52 % 2017-01-01
535 RDJ67 4.50 % 2.29 % 2017-01-01
536 mikepop 4.50 % 2.30 % 2017-01-01
537 MrBowl 4.48 % 3.08 % 2017-01-01
538 Cash_Money 4.47 % 1.60 % 2017-01-01
539 felinecrl 4.47 % ** 2.54 % 2017-01-01
540 Tailgate 4.46 % 2.46 % 2017-01-01
541 klaron 4.46 % 2.16 % 2017-01-01
542 rjeeeeezy 4.46 % 3.26 % 2017-01-01
543 roonie 4.45 % 3.16 % 2017-01-01
544 ferretgrl 4.45 % ** 2.67 % 2017-01-01
545 mikeginva 4.45 % ** 2.67 % 2017-01-01
546 silversurfer 4.44 % 2.80 % 2017-01-01
547 Gethers 4.43 % ** 2.21 % 2017-01-01
548 mdearman 4.43 % ** 2.51 % 2017-01-01
549 Jayru 4.42 % ** 2.45 % 2017-01-01
550 slakker97 4.42 % ** 2.73 % 2017-01-01
Rank Username YTD Returns MTD Returns Start Date
551 lmbebo 4.40 % ** 2.44 % 2017-01-01
552 Jaybird79 4.39 % ** 2.64 % 2017-01-01
553 playboy 4.38 % ** 2.76 % 2017-01-01
554 TDStrange 4.37 % 2.43 % 2017-01-01
555 yanni123 4.36 % 1.40 % 2017-01-01
556 atarrin 4.36 % ** 2.44 % 2017-01-01
557 LMBF1_C>S 4.35 % 1.41 % 2017-01-01
558 LMBF1_Day 4.35 % 1.41 % 2017-01-01
559 LMBF1_SIM 4.35 % 1.41 % 2017-01-01
560 judochop 4.35 % 1.41 % 2017-01-01
561 I-fund 4.35 % 1.41 % 2017-01-01
562 crispy 4.35 % ** 1.41 % 2017-01-01
563 nightlite 4.35 % ** 1.41 % 2017-01-01
564 jrutherford2 4.35 % ** 1.41 % 2017-01-01
565 malyla 4.35 % ** 1.41 % 2017-01-01
566 DCKevin 4.35 % ** 1.41 % 2017-01-01
567 2GodBtheGLORY 4.35 % ** 1.41 % 2017-01-01
568 BearTrap 4.35 % ** 1.41 % 2017-01-01
569 jajo1554 4.35 % ** 1.41 % 2017-01-01
570 Kahuna6969 4.35 % ** 1.41 % 2017-01-01
571 SavyNeal 4.35 % ** 1.41 % 2017-01-01
572 Sunnyday 4.35 % ** 1.41 % 2017-01-01
573 Shawhardy 4.35 % ** 1.41 % 2017-01-01
574 cfwcfw 4.33 % ** 2.60 % 2017-01-01
575 redcard 4.30 % ** 2.48 % 2017-01-01
576 riverdestiny 4.30 % ** 2.50 % 2017-01-01
577 RoldanFam 4.29 % ** 2.15 % 2017-01-01
578 janemattress711 4.28 % 2.60 % 2017-01-01
579 jpcavin 4.28 % 3.00 % 2017-01-01
580 crommie 4.27 % 0.86 % 2017-01-01
581 Boghie 4.27 % 2.35 % 2017-01-01
582 StockSurfer 4.26 % 3.22 % 2017-01-01
583 spacepoints 4.26 % ** 2.30 % 2017-01-01
584 franky 4.25 % 2.42 % 2017-01-01
585 L2050 4.23 % 2.28 % 2017-01-01
586 tashabh 4.23 % ** 2.28 % 2017-01-01
587 biomedrick 4.23 % ** 2.28 % 2017-01-01
588 Jayt23 4.23 % ** 2.28 % 2017-01-01
589 Caith 4.23 % ** 2.28 % 2017-01-01
590 Kjay 4.23 % ** 2.28 % 2017-01-01
591 gio20 4.23 % ** 2.28 % 2017-01-01
592 93GT 4.23 % ** 2.28 % 2017-01-01
593 doug.hornback 4.23 % ** 2.28 % 2017-01-01
594 khunk 4.23 % ** 2.28 % 2017-01-01
595 qbcall11 4.23 % ** 2.28 % 2017-01-01
596 Shivers 4.23 % ** 2.28 % 2017-01-01
597 Wrngway 4.23 % ** 2.28 % 2017-01-01
598 DesertBoots77 4.23 % ** 2.28 % 2017-01-01
599 phxmrc 4.22 % 2.96 % 2017-01-01
600 tucahay 4.22 % 2.96 % 2017-01-01
Rank Username YTD Returns MTD Returns Start Date
601 Bighorn6 4.21 % 3.06 % 2017-01-01
602 uf_rjeezy 4.19 % 3.16 % 2017-01-01
603 MRJ 4.17 % 2.08 % 2017-01-01
604 NSLADL2 4.15 % 2.46 % 2017-01-01
605 jplecain 4.15 % ** 2.16 % 2017-01-01
606 marshad_786 4.14 % 1.77 % 2017-01-01
607 Morpheus 4.12 % ** 2.20 % 2017-01-01
608 Wildwoman 4.11 % 1.91 % 2017-01-01
609 jerzystang 4.11 % ** 2.22 % 2017-01-01
610 Carpatc 4.10 % ** 2.41 % 2017-01-01
611 poi9 4.09 % 2.33 % 2017-01-01
612 nightsters 4.08 % 1.77 % 2017-01-01
613 Calicat69 4.07 % ** 2.22 % 2017-01-01
614 ldm1958 4.06 % ** 2.41 % 2017-01-01
615 KRSSDSU 4.05 % 3.10 % 2017-01-01
616 Boxholder 4.05 % 1.78 % 2017-01-01
617 scaltagi 4.05 % ** 2.46 % 2017-01-01
618 Britts4life 4.04 % 2.46 % 2017-01-01
619 OnTarget 4.04 % 2.36 % 2017-01-01
620 LongShot 4.03 % 1.13 % 2017-01-01
621 Captcaveman 4.02 % 1.95 % 2017-01-01
622 tankerclown 4.01 % 0.80 % 2017-01-01
623 FedSince2009 4.00 % ** 2.23 % 2017-01-01
624 FedUpFed 3.97 % 1.90 % 2017-01-01
625 Weather_n_Leather 3.95 % ** 2.18 % 2017-01-01
626 galaxy101 3.93 % 2.42 % 2017-01-01
627 felixthecat 3.93 % 1.92 % 2017-01-01
628 ward5820 3.92 % 2.72 % 2017-01-01
629 DaBears17 3.91 % 2.96 % 2017-01-01
630 TheGizz 3.88 % ** 2.16 % 2017-01-01
631 flg22 3.87 % 1.86 % 2017-01-01
632 hosscube 3.87 % ** 2.32 % 2017-01-01
633 Carwin 3.86 % 2.06 % 2017-01-01
634 mcash 3.86 % 2.15 % 2017-01-01
635 codezero 3.86 % ** 2.13 % 2017-01-01
636 Striken7 3.86 % ** 2.32 % 2017-01-01
637 2Plus 3.85 % 1.66 % 2017-01-01
638 indgilbert 3.85 % 2.46 % 2017-01-01
639 gk10128 3.83 % 2.68 % 2017-01-01
640 markisrt4 3.83 % 3.08 % 2017-01-01
641 FishSqueezer 3.83 % 2.10 % 2017-01-01
642 Mercy 3.83 % ** 2.08 % 2017-01-01
643 ravensfan 3.81 % 0.44 % 2017-01-01
644 ryencsik 3.79 % ** 2.27 % 2017-01-01
645 meltuna 3.78 % 2.42 % 2017-01-01
646 siidman 3.78 % 0.74 % 2017-01-01
647 LilLair 3.78 % 2.09 % 2017-01-01
648 limebalz 3.77 % 3.04 % 2017-01-01
649 Skorp64 3.77 % 1.33 % 2017-01-01
650 L2040 3.76 % 2.03 % 2017-01-01
Rank Username YTD Returns MTD Returns Start Date
651 soupygirl 3.76 % ** 2.03 % 2017-01-01
652 Salmon365 3.76 % ** 2.03 % 2017-01-01
653 soam24 3.76 % ** 2.03 % 2017-01-01
654 Castronaut 3.76 % ** 2.03 % 2017-01-01
655 Forcefed 3.76 % ** 2.03 % 2017-01-01
656 GOVOLS 3.76 % ** 2.03 % 2017-01-01
657 soupydog 3.76 % ** 2.03 % 2017-01-01
658 Tvenos 3.76 % ** 2.03 % 2017-01-01
659 jasonlwright 3.75 % ** 2.25 % 2017-01-01
660 Skorcher 3.74 % 2.96 % 2017-01-01
661 Riverman62 3.73 % ** 2.01 % 2017-01-01
662 mallardman89 3.72 % ** 2.34 % 2017-01-01
663 cybermage 3.71 % ** 2.34 % 2017-01-01
664 spgenius 3.68 % 1.49 % 2017-01-01
665 ShadowHawk 3.68 % 1.42 % 2017-01-01
666 nate4sho 3.66 % 2.74 % 2017-01-01
667 bjones7 3.65 % 1.46 % 2017-01-01
668 boilerman 3.65 % 1.46 % 2017-01-01
669 denbo 3.65 % 1.46 % 2017-01-01
670 pjsstuff71 3.65 % 1.46 % 2017-01-01
671 joewashdc 3.65 % ** 1.95 % 2017-01-01
672 k9lowe 3.65 % ** 1.96 % 2017-01-01
673 tkd1982 3.64 % 2.77 % 2017-01-01
674 argyle64 3.63 % 1.66 % 2017-01-01
675 Chorizo * 3.61 % 2.99 % 2017-01-09
676 Shakenbake * 3.60 % 1.16 % 2017-01-11
677 skeeter 3.60 % 3.36 % 2017-01-01
678 Trapperpaul 3.59 % 2.19 % 2017-01-01
679 ztlmike 3.58 % 2.97 % 2017-01-01
680 pread 3.57 % 2.96 % 2017-01-01
681 Jrfich 3.54 % 1.00 % 2017-01-01
682 Tsunami 3.52 % 3.08 % 2017-01-01
683 DC2scott * 3.50 % 2.96 % 2017-01-30
684 redman2222 3.50 % ** 1.81 % 2017-01-01
685 kujayhawk69 3.50 % ** 1.81 % 2017-01-01
686 resurgemus 3.49 % 1.82 % 2017-01-01
687 BGBassLady64 3.49 % 2.15 % 2017-01-01
688 GonzoJK 3.49 % 0.11 % 2017-01-01
689 IWTC 3.49 % ** 2.02 % 2017-01-01
690 cvlsvt 3.49 % ** 1.91 % 2017-01-01
691 Rummy1958 3.48 % 2.21 % 2017-01-01
692 Emcd14 3.47 % ** 2.08 % 2017-01-01
693 dirtboy27 3.46 % 3.25 % 2017-01-01
694 ChuckH 3.42 % 3.21 % 2017-01-01
695 beachfront * 3.41 % 3.16 % 2017-01-30
696 pinion 3.41 % ** 1.89 % 2017-01-01
697 Mucho_Dinero 3.40 % 1.66 % 2017-01-01
698 Ozhusker * 3.40 % 2.58 % 2017-01-06
699 catak 3.40 % ** 1.96 % 2017-01-01
700 tjdorrie 3.40 % ** 1.86 % 2017-01-01
Rank Username YTD Returns MTD Returns Start Date
701 Inertia 3.40 % ** 1.75 % 2017-01-01
702 CapeChem 3.38 % 1.81 % 2017-01-01
703 kathy73 3.36 % 3.04 % 2017-01-01
704 MakeItRain 3.35 % 1.46 % 2017-01-01
705 69mustang 3.34 % 1.78 % 2017-01-01
706 Sonic 3.34 % 0.37 % 2017-01-01
707 txfan 3.33 % 2.01 % 2017-01-01
708 czapor1967 3.33 % 1.14 % 2017-01-01
709 puddy 3.32 % 3.08 % 2017-01-01
710 sean101 3.31 % 1.77 % 2017-01-01
711 bjohnson12 3.31 % 0.76 % 2017-01-01
712 FAB1 3.31 % 1.46 % 2017-01-01
713 Knot_Guilty 3.31 % 2.18 % 2017-01-01
714 dialing4dollars 3.30 % 2.96 % 2017-01-01
715 lilbob 3.30 % ** 1.72 % 2017-01-01
716 tucotsp 3.28 % 3.03 % 2017-01-01
717 Mantonelli 3.26 % 0.27 % 2017-01-01
718 DreamboatAnnie 3.26 % 0.11 % 2017-01-01
719 weather 3.26 % 1.75 % 2017-01-01
720 L2030 3.26 % 1.75 % 2017-01-01
721 LeCouchonDingue 3.26 % ** 1.75 % 2017-01-01
722 pwclantdiv 3.26 % ** 1.81 % 2017-01-01
723 DrScooter 3.26 % ** 1.75 % 2017-01-01
724 marka1620 3.26 % ** 1.75 % 2017-01-01
725 pathalford 3.26 % ** 1.75 % 2017-01-01
726 Towanda 3.25 % ** 1.87 % 2017-01-01
727 canisdog 3.25 % ** 1.71 % 2017-01-01
728 scrsvs 3.24 % 1.47 % 2017-01-01
729 Phil46 3.24 % ** 1.70 % 2017-01-01
730 u.s.dan 3.23 % 2.13 % 2017-01-01
731 cholondo 3.23 % 1.81 % 2017-01-01
732 20%_each 3.20 % 1.69 % 2017-01-01
733 CDooge 3.20 % ** 1.69 % 2017-01-01
734 Rube 3.20 % ** 1.69 % 2017-01-01
735 Kevindraws53 3.20 % ** 1.91 % 2017-01-01
736 msm24 3.20 % ** 1.69 % 2017-01-01
737 endoskell 3.19 % 2.96 % 2017-01-01
738 Sad_Al 3.19 % 2.29 % 2017-01-01
739 scsiguru 3.19 % ** 1.73 % 2017-01-01
740 jnchandrew 3.18 % 0.70 % 2017-01-01
741 jbwalters 3.17 % 2.97 % 2017-01-01
742 fran1775 3.17 % 2.96 % 2017-01-01
743 Maine-i-ac 3.14 % 0.11 % 2017-01-01
744 Totohydra 3.13 % 2.96 % 2017-01-01
745 Bball 3.13 % ** 1.37 % 2017-01-01
746 MrJohnRoss 3.11 % 2.42 % 2017-01-01
747 lmcues 3.08 % 1.17 % 2017-01-01
748 SCHAGAN 3.07 % 2.30 % 2017-01-01
749 Rogue 3.07 % 1.68 % 2017-01-01
750 TURNIPSEED 3.07 % 2.35 % 2017-01-01
Rank Username YTD Returns MTD Returns Start Date
751 Bender 3.07 % ** 1.91 % 2017-01-01
752 StockTater 3.07 % ** 1.74 % 2017-01-01
753 rchurchwell 3.06 % 0.88 % 2017-01-01
754 lthor 3.06 % 0.11 % 2017-01-01
755 Kaufmanrider 3.04 % ** 1.49 % 2017-01-01
756 neptune 3.03 % 1.72 % 2017-01-01
757 tazzymt 3.03 % 1.76 % 2017-01-01
758 14ers 3.03 % ** 1.71 % 2017-01-01
759 les2l8 3.01 % 0.86 % 2017-01-01
760 lkatme 3.01 % ** 1.72 % 2017-01-01
761 Beagle * 3.00 % 3.22 % 2017-01-24
762 Booster 3.00 % 0.27 % 2017-01-01
763 Bmoredunks 3.00 % 1.68 % 2017-01-01
764 funkyhunky 3.00 % 2.79 % 2017-01-01
765 Cathy57 3.00 % 0.11 % 2017-01-01
766 olddog 3.00 % 0.11 % 2017-01-01
767 mickeyelk 3.00 % 3.16 % 2017-01-01
768 polarbear 2.98 % 1.02 % 2017-01-01
769 londi1tagaholy 2.97 % ** 1.85 % 2017-01-01
770 hotelyankee16 * 2.96 % 2.96 % 2017-01-31
771 Medic72 2.96 % ** 1.76 % 2017-01-01
772 ravenstreasures 2.96 % ** 1.77 % 2017-01-01
773 hotwings 2.95 % 1.71 % 2017-01-01
774 BArREttLEEMAKINIT 2.95 % 1.04 % 2017-01-01
775 timingbill 2.94 % ** 1.67 % 2017-01-01
776 gos3319 2.94 % ** 1.66 % 2017-01-01
777 frostybosty 2.93 % 1.43 % 2017-01-01
778 KinoFish * 2.91 % 2.41 % 2017-01-05
779 domino11 2.91 % ** 1.64 % 2017-01-01
780 parkbrau 2.90 % ** 1.42 % 2017-01-01
781 Renoir 2.90 % ** 1.59 % 2017-01-01
782 Luckycat 2.89 % ** 1.71 % 2017-01-01
783 rich1 2.89 % ** 1.65 % 2017-01-01
784 loco_lobo 2.88 % 2.64 % 2017-01-01
785 DaddyTin 2.87 % 2.76 % 2017-01-01
786 fossilbird 2.87 % ** 1.78 % 2017-01-01
787 dallashalos 2.86 % 1.72 % 2017-01-01
788 PublicServant * 2.84 % 2.84 % 2017-02-01
789 clester 2.84 % ** 1.77 % 2017-01-01
790 batman 2.83 % 2.14 % 2017-01-01
791 lsrodgers 2.83 % ** 1.57 % 2017-01-01
792 GoNoles 2.82 % ** 1.59 % 2017-01-01
793 Bowfish 2.81 % 2.46 % 2017-01-01
794 tataberto 2.81 % 1.65 % 2017-01-01
795 c130 2.81 % 0.64 % 2017-01-01
796 arrow_point 2.80 % 2.96 % 2017-01-01
797 Scrappy 2.78 % 1.93 % 2017-01-01
798 tetonshasta * 2.73 % 1.68 % 2017-01-17
799 kras 2.73 % 1.90 % 2017-01-01
800 Kentucky 2.73 % 1.42 % 2017-01-01
Rank Username YTD Returns MTD Returns Start Date
801 insocova 2.73 % 3.16 % 2017-01-01
802 RushSlowly 2.72 % 2.20 % 2017-01-01
803 MoneyTalks 2.71 % 0.51 % 2017-01-01
804 alexkoonce 2.70 % ** 1.58 % 2017-01-01
805 Mustang2008 * 2.69 % 2.26 % 2017-01-09
806 Pmnick114 2.67 % ** 1.50 % 2017-01-01
807 Volfan 2.64 % 0.60 % 2017-01-01
808 thewingreaper 2.62 % 0.11 % 2017-01-01
809 PTSarge 2.62 % ** 1.64 % 2017-01-01
810 Wilycoyote 2.60 % 0.37 % 2017-01-01
811 Lynx 2.60 % 2.36 % 2017-01-01
812 Mlbplayer86 * 2.60 % 2.18 % 2017-01-17
813 FireWeatherMet 2.57 % 2.33 % 2017-01-01
814 BIGfRED 2.57 % ** 1.46 % 2017-01-01
815 1965Vintage * 2.55 % 0.96 % 2017-01-19
816 JaBlack 2.55 % 2.38 % 2017-01-01
817 tdekens * 2.54 % 2.54 % 2017-02-06
818 Cruser 2.53 % 0.11 % 2017-01-01
819 sdhoag13 2.52 % 1.35 % 2017-01-01
820 crhuss 2.52 % ** 1.49 % 2017-01-01
821 IndianaJones 2.51 % 1.96 % 2017-01-01
822 HollywoodNY 2.51 % ** 1.31 % 2017-01-01
823 Scraps 2.50 % 0.90 % 2017-01-01
824 1daybe * 2.50 % 2.50 % 2017-02-06
825 spapadopoulos 2.48 % 1.78 % 2017-01-01
826 RobinHood 2.48 % 0.41 % 2017-01-01
827 prisonguard224 2.48 % 0.11 % 2017-01-01
828 Butters 2.45 % 1.38 % 2017-01-01
829 DudeWayne 2.43 % 2.35 % 2017-01-01
830 arodiaz 2.43 % ** 1.32 % 2017-01-01
831 coinmanjack 2.42 % ** 1.30 % 2017-01-01
832 merlin 2.42 % ** 1.42 % 2017-01-01
833 Jason.Z 2.41 % 2.61 % 2017-01-01
834 bighurd51 2.41 % 2.39 % 2017-01-01
835 pamkk 2.40 % 0.36 % 2017-01-01
836 sanfran814 * 2.40 % 2.19 % 2017-01-05
837 ezcomeezgo 2.39 % 1.59 % 2017-01-01
838 TKMike 2.39 % 1.23 % 2017-01-01
839 Rundp 2.39 % ** 1.41 % 2017-01-01
840 Richard_Todd 2.38 % 1.71 % 2017-01-01
841 mbergevinjr 2.36 % 1.46 % 2017-01-01
842 boricua 2.35 % 0.57 % 2017-01-01
843 mrmaxd 2.34 % ** 0.77 % 2017-01-01
844 Gypsy55 2.32 % 0.79 % 2017-01-01
845 TradingJoe 2.31 % 1.32 % 2017-01-01
846 mrduckmd1 2.30 % 0.14 % 2017-01-01
847 ROCKMAXX 2.29 % 1.19 % 2017-01-01
848 Ducksrule 2.28 % 1.33 % 2017-01-01
849 Clue 2.28 % 0.17 % 2017-01-01
850 razorbckx 2.28 % ** 1.21 % 2017-01-01
Rank Username YTD Returns MTD Returns Start Date
851 kitaw33 2.26 % 0.67 % 2017-01-01
852 JOSE123 2.26 % ** 0.75 % 2017-01-01
853 p3a 2.24 % 1.18 % 2017-01-01
854 BorderBlade 2.24 % 1.46 % 2017-01-01
855 homieg24 2.24 % 0.63 % 2017-01-01
856 Rainmaker44 2.24 % 1.18 % 2017-01-01
857 kevmanfoo 2.24 % 0.27 % 2017-01-01
858 L2020 2.24 % 1.18 % 2017-01-01
859 KevinD 2.24 % ** 1.18 % 2017-01-01
860 wornout 2.24 % ** 1.18 % 2017-01-01
861 derosafj 2.24 % ** 1.18 % 2017-01-01
862 dpardue 2.24 % ** 1.18 % 2017-01-01
863 REDNECK 2.22 % ** 1.30 % 2017-01-01
864 NavyGirl88 2.20 % 1.61 % 2017-01-01
865 Copedad * 2.20 % 2.02 % 2017-01-30
866 soupydoom 2.20 % 0.31 % 2017-01-01
867 wevodau 2.19 % 1.61 % 2017-01-01
868 BillD 2.19 % ** 1.24 % 2017-01-01
869 adamo 2.18 % 0.64 % 2017-01-01
870 dfaat * 2.17 % 2.17 % 2017-01-31
871 JABS 2.16 % 1.46 % 2017-01-01
872 Attila 2.16 % 1.95 % 2017-01-01
873 bmthomas0222 2.16 % ** 1.28 % 2017-01-01
874 wayne622 * 2.15 % 2.15 % 2017-01-31
875 modom07 * 2.14 % 2.14 % 2017-02-02
876 dillpickle * 2.13 % 1.41 % 2017-01-13
877 ArkHills 2.12 % 1.30 % 2017-01-01
878 sierrabravo11 * 2.11 % 2.67 % 2017-01-27
879 cpowith4 2.10 % 2.25 % 2017-01-01
880 paymetoplay * 2.10 % 2.96 % 2017-01-26
881 SteelSaving 2.10 % 2.07 % 2017-01-01
882 meyersj 2.08 % 0.11 % 2017-01-01
883 bikeboyjoe 2.08 % ** 1.16 % 2017-01-01
884 ephsns2 2.06 % 0.11 % 2017-01-01
885 talking2jets 2.05 % 0.11 % 2017-01-01
886 soon2retire 2.05 % ** 0.95 % 2017-01-01
887 peterson82 2.04 % 2.96 % 2017-01-01
888 anthony 2.03 % 1.80 % 2017-01-01
889 J-Trader 2.01 % 0.82 % 2017-01-01
890 Richman52 * 2.00 % 2.58 % 2017-01-27
891 KNUCKLEDRAGGER 1.97 % 0.90 % 2017-01-01
892 evilanne 1.96 % 1.13 % 2017-01-01
893 bullsheet 1.96 % ** 1.09 % 2017-01-01
894 MaxPowers 1.95 % 0.11 % 2017-01-01
895 Badgers69 1.95 % 2.96 % 2017-01-01
896 Tangmonke 1.95 % 0.72 % 2017-01-01
897 DrFaustus 1.95 % 2.96 % 2017-01-01
898 Nadeem 1.95 % 2.96 % 2017-01-01
899 Snakebite 1.93 % 1.72 % 2017-01-01
900 Mauser 1.93 % 1.16 % 2017-01-01
Rank Username YTD Returns MTD Returns Start Date
901 konakathy 1.92 % 1.11 % 2017-01-01
902 mtstricker 1.92 % ** 1.11 % 2017-01-01
903 EarlyRTr 1.89 % 0.57 % 2017-01-01
904 JAFI 1.89 % 0.72 % 2017-01-01
905 gman48 1.88 % 2.02 % 2017-01-01
906 thickage * 1.88 % 2.72 % 2017-01-25
907 ChessGuy 1.83 % 0.02 % 2017-01-01
908 yeot 1.81 % ** 0.92 % 2017-01-01
909 amuraider 1.80 % 1.05 % 2017-01-01
910 2Funds 1.80 % ** 1.09 % 2017-01-01
911 barnowlet 1.79 % 0.99 % 2017-01-01
912 catsathome 1.78 % 2.24 % 2017-01-01
913 fick 1.75 % ** 0.90 % 2017-01-01
914 DeeBeeVA 1.74 % 1.53 % 2017-01-01
915 brobin10 1.73 % 0.74 % 2017-01-01
916 TSP4Soccer 1.72 % ** 0.97 % 2017-01-01
917 postalmatt 1.70 % 1.16 % 2017-01-01
918 murph 1.70 % 0.14 % 2017-01-01
919 DistributionKiller 1.70 % 0.11 % 2017-01-01
920 jeffrey77jones 1.70 % 0.11 % 2017-01-01
921 EWB! 1.67 % 0.72 % 2017-01-01
922 VPX11 1.67 % 2.31 % 2017-01-01
923 riptide17 1.65 % 1.41 % 2017-01-01
924 TMUFR 1.63 % 1.44 % 2017-01-01
925 iceman1jag 1.63 % ** 0.89 % 2017-01-01
926 FordMan 1.62 % 0.99 % 2017-01-01
927 jpatriarca 1.60 % ** 0.86 % 2017-01-01
928 Robin_hood 1.59 % 0.11 % 2017-01-01
929 SICK2MYSTOMACH 1.58 % 1.38 % 2017-01-01
930 olddb * 1.58 % 3.00 % 2017-01-04
931 chingerson 1.58 % ** 0.83 % 2017-01-01
932 North 1.57 % ** 0.88 % 2017-01-01
933 tspintel 1.56 % -0.03 % 2017-01-01
934 1derman 1.56 % 0.27 % 2017-01-01
935 Risky1 1.55 % 1.27 % 2017-01-01
936 Risky11 1.55 % 1.27 % 2017-01-01
937 sgtbriangreen 1.51 % 0.56 % 2017-01-01
938 NASAedStevens 1.50 % ** 0.89 % 2017-01-01
939 sbates 1.48 % ** 0.84 % 2017-01-01
940 PAINTER533 1.46 % ** 0.86 % 2017-01-01
941 sagramore 1.46 % ** 0.84 % 2017-01-01
942 EarlyRetire 1.45 % 0.79 % 2017-01-01
943 bhep * 1.44 % 2.96 % 2017-01-05
944 tdorney1 1.42 % ** 0.76 % 2017-01-01
945 triquasar 1.40 % 1.09 % 2017-01-01
946 rytrucker 1.40 % ** 0.79 % 2017-01-01
947 raiderddj 1.39 % 0.11 % 2017-01-01
948 CadMeUm 1.38 % 1.18 % 2017-01-01
949 marine 1.38 % ** 0.75 % 2017-01-01
950 Klear 1.37 % 0.36 % 2017-01-01
Rank Username YTD Returns MTD Returns Start Date
951 IFTrader 1.37 % 0.82 % 2017-01-01
952 tink 1.34 % 1.13 % 2017-01-01
953 MohammadXX 1.30 % 0.69 % 2017-01-01
954 farmerjack 1.30 % ** 0.66 % 2017-01-01
955 alevin 1.29 % 1.53 % 2017-01-01
956 Monzie * 1.29 % 1.29 % 2017-01-31
957 bones605 1.29 % 0.66 % 2017-01-01
958 slayer72 1.27 % 0.67 % 2017-01-01
959 kave 1.25 % 0.64 % 2017-01-01
960 L-Income 1.25 % 0.64 % 2017-01-01
961 goldenyears 1.25 % 0.64 % 2017-01-01
962 ricokaro 1.25 % ** 0.64 % 2017-01-01
963 betterdeal 1.25 % ** 0.64 % 2017-01-01
964 Crewdog 1.25 % ** 0.64 % 2017-01-01
965 safetyguy 1.18 % 0.63 % 2017-01-01
966 12squared 1.16 % 1.77 % 2017-01-01
967 TerpTrader 1.16 % 0.53 % 2017-01-01
968 Spaniard 1.16 % 0.27 % 2017-01-01
969 FireGal 1.12 % 0.88 % 2017-01-01
970 CallMeIshmael 1.10 % ** 0.56 % 2017-01-01
971 joh1135 1.07 % ** 0.36 % 2017-01-01
972 rudyd3 1.07 % ** 0.54 % 2017-01-01
973 lucy 1.05 % 2.39 % 2017-01-01
974 Semper 1.03 % 0.26 % 2017-01-01
975 lpac 1.02 % 0.76 % 2017-01-01
976 99percent 1.02 % 0.27 % 2017-01-01
977 Whipsaw 1.01 % 0.44 % 2017-01-01
978 msls6 1.01 % 0.11 % 2017-01-01
979 netforcer 0.99 % 0.11 % 2017-01-01
980 maui21ice 0.97 % -0.01 % 2017-01-01
981 Roymac28 0.96 % 0.57 % 2017-01-01
982 daze823 0.92 % 0.45 % 2017-01-01
983 Pickles 0.90 % 1.09 % 2017-01-01
984 artie32 0.90 % 0.71 % 2017-01-01
985 Sippeeboy 0.90 % 0.69 % 2017-01-01
986 bohammer 0.90 % ** 0.31 % 2017-01-01
987 lsbeachwx 0.88 % 0.79 % 2017-01-01
988 slowhand1964 0.88 % ** 0.48 % 2017-01-01
989 qibovin 0.87 % ** 0.44 % 2017-01-01
990 Blarney 0.86 % 0.64 % 2017-01-01
991 Holden_Caufield 0.84 % 0.61 % 2017-01-01
992 cowboyaug4 0.84 % 0.64 % 2017-01-01
993 Bdiddy 0.82 % 0.11 % 2017-01-01
994 helpme 0.73 % ** 0.28 % 2017-01-01
995 Xilonen 0.69 % ** 0.24 % 2017-01-01
996 coastalite 0.68 % 0.48 % 2017-01-01
997 hemi2020 * 0.67 % 0.67 % 2017-02-13
998 Longstreet 0.66 % 0.44 % 2017-01-01
999 DLBJr 0.64 % 0.10 % 2017-01-01
1000 dmanron58 0.64 % 0.24 % 2017-01-01
Rank Username YTD Returns MTD Returns Start Date
1001 llealo53 0.63 % 0.11 % 2017-01-01
1002 Latonia64 0.62 % ** 0.33 % 2017-01-01
1003 Tawny27 0.61 % 0.30 % 2017-01-01
1004 OldGoat * 0.59 % 0.43 % 2017-01-11
1005 Sam_5_0 * 0.59 % 1.15 % 2017-01-27
1006 RAM56 0.55 % 0.26 % 2017-01-01
1007 Robvegas 0.50 % 0.27 % 2017-01-01
1008 Keithj01 0.50 % 0.27 % 2017-01-01
1009 MarkC 0.50 % 0.27 % 2017-01-01
1010 cosinecrunchdown 0.50 % 0.27 % 2017-01-01
1011 Gahiker 0.50 % 0.27 % 2017-01-01
1012 EZ2K 0.50 % 0.27 % 2017-01-01
1013 wwiggin2002 0.50 % 0.27 % 2017-01-01
1014 F-fund 0.50 % 0.27 % 2017-01-01
1015 Mr_Boooom 0.50 % 0.27 % 2017-01-01
1016 Nordic 0.50 % 0.27 % 2017-01-01
1017 trevor1953 0.50 % ** 0.27 % 2017-01-01
1018 MrVela 0.50 % ** 0.27 % 2017-01-01
1019 AHarvey311990 0.50 % ** 0.27 % 2017-01-01
1020 Muneco803 0.50 % ** 0.27 % 2017-01-01
1021 icemanknows 0.50 % ** 0.27 % 2017-01-01
1022 Titotsp 0.50 % ** 0.27 % 2017-01-01
1023 HALL 0.50 % ** 0.27 % 2017-01-01
1024 ContrarianJeff 0.50 % ** 0.27 % 2017-01-01
1025 NOVANole 0.50 % ** 0.27 % 2017-01-01
1026 nbialek2 0.50 % ** 0.27 % 2017-01-01
1027 JACKNAZ0506 0.50 % ** 0.27 % 2017-01-01
1028 pmcriaco 0.50 % ** 0.27 % 2017-01-01
1029 Litlbear62 0.50 % ** 0.27 % 2017-01-01
1030 milopro 0.50 % ** 0.27 % 2017-01-01
1031 cologal8 0.50 % ** 0.27 % 2017-01-01
1032 staticoverdub 0.50 % ** 0.27 % 2017-01-01
1033 samNme 0.50 % ** 0.27 % 2017-01-01
1034 ybnormal 0.50 % ** 0.27 % 2017-01-01
1035 keepnitreal 0.50 % ** 0.27 % 2017-01-01
1036 wayne 0.50 % ** 0.27 % 2017-01-01
1037 cenno 0.50 % ** 0.27 % 2017-01-01
1038 dprince 0.50 % ** 0.27 % 2017-01-01
1039 dibyadas 0.50 % ** 0.27 % 2017-01-01
1040 navyseal641 0.50 % ** 0.27 % 2017-01-01
1041 VincentP 0.50 % ** 0.27 % 2017-01-01
1042 Adventurer 0.50 % ** 0.27 % 2017-01-01
1043 azfreed5 0.50 % ** 0.27 % 2017-01-01
1044 Colegan 0.50 % ** 0.27 % 2017-01-01
1045 DINK 0.50 % ** 0.27 % 2017-01-01
1046 DonStar 0.50 % ** 0.27 % 2017-01-01
1047 drifter81 0.50 % ** 0.27 % 2017-01-01
1048 elitesauce 0.50 % ** 0.27 % 2017-01-01
1049 hoodoo 0.50 % ** 0.27 % 2017-01-01
1050 huskerchad 0.50 % ** 0.27 % 2017-01-01
Rank Username YTD Returns MTD Returns Start Date
1051 JD797 0.50 % ** 0.27 % 2017-01-01
1052 Labsroc01 0.50 % ** 0.27 % 2017-01-01
1053 Luscombesfly 0.50 % ** 0.27 % 2017-01-01
1054 masedog81 0.50 % ** 0.27 % 2017-01-01
1055 mpdcop 0.50 % ** 0.27 % 2017-01-01
1056 nab0325 0.50 % ** 0.27 % 2017-01-01
1057 pmelchman 0.50 % ** 0.27 % 2017-01-01
1058 SS4183 0.50 % ** 0.27 % 2017-01-01
1059 TSPNotley 0.50 % ** 0.27 % 2017-01-01
1060 vector4tfc 0.50 % ** 0.27 % 2017-01-01
1061 yeelah1 0.50 % ** 0.27 % 2017-01-01
1062 slickcheech 0.50 % ** 0.27 % 2017-01-01
1063 kooke 0.50 % ** 0.27 % 2017-01-01
1064 not_too_shabby 0.50 % ** 0.27 % 2017-01-01
1065 CaptainVic 0.48 % ** 0.20 % 2017-01-01
1066 Tmahal720 0.47 % ** 0.24 % 2017-01-01
1067 hindsnr 0.46 % ** 0.23 % 2017-01-01
1068 scooter0037 0.46 % ** 0.23 % 2017-01-01
1069 userque 0.45 % 0.11 % 2017-01-01
1070 btreecej 0.43 % ** 0.21 % 2017-01-01
1071 Thunderhorse 0.43 % ** 0.21 % 2017-01-01
1072 Bluewing00 0.42 % 0.19 % 2017-01-01
1073 PessOptimist 0.42 % ** 0.18 % 2017-01-01
1074 1FraGar 0.41 % -0.38 % 2017-01-01
1075 korekaza 0.41 % 0.19 % 2017-01-01
1076 road_kill 0.41 % 0.19 % 2017-01-01
1077 hayman 0.41 % ** 0.19 % 2017-01-01
1078 NewBlackShirt 0.41 % ** 0.19 % 2017-01-01
1079 BigSnack 0.41 % ** 0.19 % 2017-01-01
1080 kdub 0.41 % ** 0.19 % 2017-01-01
1081 parton1080 0.39 % ** 0.17 % 2017-01-01
1082 SMooreAce 0.39 % ** 0.14 % 2017-01-01
1083 EmoDx 0.37 % 0.16 % 2017-01-01
1084 Elkhunter 0.37 % ** 0.16 % 2017-01-01
1085 williamr 0.36 % ** 0.15 % 2017-01-01
1086 truema666ot 0.36 % ** 0.15 % 2017-01-01
1087 kobedog 0.35 % 0.15 % 2017-01-01
1088 bayou4cj 0.35 % ** 0.14 % 2017-01-01
1089 Wasp49 0.35 % ** 0.13 % 2017-01-01
1090 Aitrus 0.35 % ** 0.14 % 2017-01-01
1091 Ship 0.35 % ** 0.14 % 2017-01-01
1092 SayWhat 0.33 % ** 0.13 % 2017-01-01
1093 widdicom 0.31 % 0.11 % 2017-01-01
1094 soyousay 0.31 % 0.11 % 2017-01-01
1095 spinachetr 0.31 % 0.11 % 2017-01-01
1096 kjb120169 0.31 % 0.11 % 2017-01-01
1097 spikeyball 0.31 % 0.11 % 2017-01-01
1098 NOLANDER 0.31 % 0.11 % 2017-01-01
1099 Anaconda 0.31 % 0.11 % 2017-01-01
1100 Kaulana 0.31 % 0.11 % 2017-01-01
Rank Username YTD Returns MTD Returns Start Date
1101 nanamoma 0.31 % 0.11 % 2017-01-01
1102 FMS_MITCH 0.31 % 0.11 % 2017-01-01
1103 tmc1045 0.31 % 0.11 % 2017-01-01
1104 burrocrat 0.31 % 0.11 % 2017-01-01
1105 burros-ark 0.31 % 0.11 % 2017-01-01
1106 St3gz 0.31 % 0.11 % 2017-01-01
1107 dwwright3rd 0.31 % 0.11 % 2017-01-01
1108 shybear 0.31 % 0.11 % 2017-01-01
1109 WhiskeyOne 0.31 % 0.11 % 2017-01-01
1110 jonfresno 0.31 % 0.11 % 2017-01-01
1111 Skyrider2020 0.31 % 0.11 % 2017-01-01
1112 angus36 0.31 % 0.11 % 2017-01-01
1113 Myemal 0.31 % 0.11 % 2017-01-01
1114 Lostdawg 0.31 % 0.11 % 2017-01-01
1115 Master_Key 0.31 % 0.11 % 2017-01-01
1116 MacDaddy 0.31 % 0.11 % 2017-01-01
1117 G-fund 0.31 % 0.11 % 2017-01-01
1118 Meteorology 0.31 % 0.11 % 2017-01-01
1119 Edna1890 0.31 % 0.11 % 2017-01-01
1120 BamaAF 0.31 % ** 0.11 % 2017-01-01
1121 Nick 0.31 % ** 0.11 % 2017-01-01
1122 alcusmc 0.31 % ** 0.11 % 2017-01-01
1123 ssdave 0.31 % ** 0.11 % 2017-01-01
1124 vectorman 0.31 % ** 0.11 % 2017-01-01
1125 jaybro61 0.31 % ** 0.11 % 2017-01-01
1126 OBXTrader 0.31 % ** 0.11 % 2017-01-01
1127 Groovin 0.31 % ** 0.11 % 2017-01-01
1128 pecos_diamond 0.31 % ** 0.11 % 2017-01-01
1129 confusedcookie 0.31 % ** 0.11 % 2017-01-01
1130 Toughmudder 0.31 % ** 0.11 % 2017-01-01
1131 JEWELS1 0.31 % ** 0.11 % 2017-01-01
1132 DansTSP 0.31 % ** 0.11 % 2017-01-01
1133 DouglasL 0.31 % ** 0.11 % 2017-01-01
1134 bobgrem 0.31 % ** 0.11 % 2017-01-01
1135 totallykool 0.31 % ** 0.11 % 2017-01-01
1136 firstpersonpl 0.31 % ** 0.11 % 2017-01-01
1137 kdr1 0.31 % ** 0.11 % 2017-01-01
1138 Congee 0.31 % ** 0.11 % 2017-01-01
1139 PKevin 0.31 % ** 0.11 % 2017-01-01
1140 swordandcross 0.31 % ** 0.11 % 2017-01-01
1141 Boomer 0.31 % ** 0.11 % 2017-01-01
1142 edeckman 0.31 % ** 0.11 % 2017-01-01
1143 kdraya 0.31 % ** 0.11 % 2017-01-01
1144 mtom938 0.31 % ** 0.11 % 2017-01-01
1145 WorkFE 0.31 % ** 0.11 % 2017-01-01
1146 Mr_Shekels 0.31 % ** 0.11 % 2017-01-01
1147 Zags_Cal 0.31 % ** 0.11 % 2017-01-01
1148 ebikerz 0.31 % ** 0.11 % 2017-01-01
1149 bmneveu 0.31 % ** 0.11 % 2017-01-01
1150 kar_crazy 0.31 % ** 0.11 % 2017-01-01
Rank Username YTD Returns MTD Returns Start Date
1151 JMoody 0.31 % ** 0.11 % 2017-01-01
1152 Kimber411 0.31 % ** 0.11 % 2017-01-01
1153 Heloguy 0.31 % ** 0.11 % 2017-01-01
1154 TLeo96 0.31 % ** 0.11 % 2017-01-01
1155 Stonehands 0.31 % ** 0.11 % 2017-01-01
1156 quickfuze 0.31 % ** 0.11 % 2017-01-01
1157 Skunked 0.31 % ** 0.11 % 2017-01-01
1158 2manyirons 0.31 % ** 0.11 % 2017-01-01
1159 ChiTown 0.31 % ** 0.11 % 2017-01-01
1160 Erie 0.31 % ** 0.11 % 2017-01-01
1161 BB-Stacker 0.31 % ** 0.11 % 2017-01-01
1162 Old_Town 0.31 % ** 0.11 % 2017-01-01
1163 wasaki 0.31 % ** 0.11 % 2017-01-01
1164 OKSHEMP 0.31 % ** 0.11 % 2017-01-01
1165 totoylv 0.31 % ** 0.11 % 2017-01-01
1166 zdcman 0.31 % ** 0.11 % 2017-01-01
1167 Greg 0.31 % ** 0.11 % 2017-01-01
1168 Jerry 0.31 % ** 0.11 % 2017-01-01
1169 ccbadc 0.31 % ** 0.11 % 2017-01-01
1170 hummingbird 0.31 % ** 0.11 % 2017-01-01
1171 freechina 0.31 % ** 0.11 % 2017-01-01
1172 whitemingo 0.31 % ** 0.11 % 2017-01-01
1173 Zepplin4 0.31 % ** 0.11 % 2017-01-01
1174 theo15 0.31 % ** 0.11 % 2017-01-01
1175 grandma 0.31 % ** 0.11 % 2017-01-01
1176 robo 0.31 % ** 0.11 % 2017-01-01
1177 JMajor 0.31 % ** 0.11 % 2017-01-01
1178 polanece 0.31 % ** 0.11 % 2017-01-01
1179 LimaFox 0.31 % ** 0.11 % 2017-01-01
1180 trmill2 0.31 % ** 0.11 % 2017-01-01
1181 FlyingTurtle 0.31 % ** 0.11 % 2017-01-01
1182 gumshoe45 0.31 % ** 0.11 % 2017-01-01
1183 lostclimbing 0.31 % ** 0.11 % 2017-01-01
1184 ProfitHitz 0.31 % ** 0.11 % 2017-01-01
1185 Golfdude 0.31 % ** 0.11 % 2017-01-01
1186 Aquaman 0.31 % ** 0.11 % 2017-01-01
1187 Jello 0.31 % ** 0.11 % 2017-01-01
1188 tinker1 0.31 % ** 0.11 % 2017-01-01
1189 korrianderson 0.31 % ** 0.11 % 2017-01-01
1190 roxiemoron 0.31 % ** 0.11 % 2017-01-01
1191 Deano64 0.31 % ** 0.11 % 2017-01-01
1192 HoustonJoe 0.31 % ** 0.11 % 2017-01-01
1193 kb9nvh 0.31 % ** 0.11 % 2017-01-01
1194 mochatater 0.31 % ** 0.11 % 2017-01-01
1195 mrbossman 0.31 % ** 0.11 % 2017-01-01
1196 Sepr8tr 0.31 % ** 0.11 % 2017-01-01
1197 woodsman 0.31 % ** 0.11 % 2017-01-01
1198 budfox 0.31 % ** 0.11 % 2017-01-01
1199 ExtremeWX 0.31 % ** 0.11 % 2017-01-01
1200 goldwell 0.31 % ** 0.11 % 2017-01-01
Rank Username YTD Returns MTD Returns Start Date
1201 mebrow5 0.31 % ** 0.11 % 2017-01-01
1202 minnow 0.31 % ** 0.11 % 2017-01-01
1203 mmk119 0.31 % ** 0.11 % 2017-01-01
1204 RATMONEY 0.31 % ** 0.11 % 2017-01-01
1205 FairShare 0.31 % ** 0.11 % 2017-01-01
1206 beachpeach80 0.31 % ** 0.11 % 2017-01-01
1207 budmaster 0.31 % ** 0.11 % 2017-01-01
1208 sabri11 0.31 % ** 0.11 % 2017-01-01
1209 osseo 0.31 % ** 0.11 % 2017-01-01
1210 INSITES 0.31 % ** 0.11 % 2017-01-01
1211 Kite_Runner 0.31 % ** 0.11 % 2017-01-01
1212 Rotre52 0.31 % ** 0.11 % 2017-01-01
1213 anthonyc220 0.31 % ** 0.11 % 2017-01-01
1214 nsurf9 0.31 % ** 0.11 % 2017-01-01
1215 1peckcd4 0.31 % ** 0.11 % 2017-01-01
1216 2peaches2oranges 0.31 % ** 0.11 % 2017-01-01
1217 agrimm01 0.31 % ** 0.11 % 2017-01-01
1218 Bantley64 0.31 % ** 0.11 % 2017-01-01
1219 BayouTrader 0.31 % ** 0.11 % 2017-01-01
1220 bgoldman 0.31 % ** 0.11 % 2017-01-01
1221 blueskies 0.31 % ** 0.11 % 2017-01-01
1222 BULLonPARADE 0.31 % ** 0.11 % 2017-01-01
1223 BUSHIDO 0.31 % ** 0.11 % 2017-01-01
1224 Captaincuse 0.31 % ** 0.11 % 2017-01-01
1225 cedrus 0.31 % ** 0.11 % 2017-01-01
1226 cgooch 0.31 % ** 0.11 % 2017-01-01
1227 coerik1983 0.31 % ** 0.11 % 2017-01-01
1228 Concabar 0.31 % ** 0.11 % 2017-01-01
1229 Corepuncher 0.31 % ** 0.11 % 2017-01-01
1230 Cortez 0.31 % ** 0.11 % 2017-01-01
1231 crunchy_fo 0.31 % ** 0.11 % 2017-01-01
1232 DA44 0.31 % ** 0.11 % 2017-01-01
1233 Deadmeat99 0.31 % ** 0.11 % 2017-01-01
1234 Ed_the_Fed 0.31 % ** 0.11 % 2017-01-01
1235 FishinFool 0.31 % ** 0.11 % 2017-01-01
1236 flipper180 0.31 % ** 0.11 % 2017-01-01
1237 foolsgold 0.31 % ** 0.11 % 2017-01-01
1238 GFCSorI 0.31 % ** 0.11 % 2017-01-01
1239 GoTech 0.31 % ** 0.11 % 2017-01-01
1240 GR-Turk 0.31 % ** 0.11 % 2017-01-01
1241 Gryle 0.31 % ** 0.11 % 2017-01-01
1242 heathda 0.31 % ** 0.11 % 2017-01-01
1243 heflijl 0.31 % ** 0.11 % 2017-01-01
1244 Highheaven184 0.31 % ** 0.11 % 2017-01-01
1245 hlgalang 0.31 % ** 0.11 % 2017-01-01
1246 huff324 0.31 % ** 0.11 % 2017-01-01
1247 idplakm 0.31 % ** 0.11 % 2017-01-01
1248 jlaufer89 0.31 % ** 0.11 % 2017-01-01
1249 joylynn 0.31 % ** 0.11 % 2017-01-01
1250 JPHAMM1994 0.31 % ** 0.11 % 2017-01-01
Rank Username YTD Returns MTD Returns Start Date
1251 kma18 0.31 % ** 0.11 % 2017-01-01
1252 Lthomas 0.31 % ** 0.11 % 2017-01-01
1253 lukepldo 0.31 % ** 0.11 % 2017-01-01
1254 MailmanSean 0.31 % ** 0.11 % 2017-01-01
1255 Maxumman 0.31 % ** 0.11 % 2017-01-01
1256 MXKENNY415 0.31 % ** 0.11 % 2017-01-01
1257 nmilluminati 0.31 % ** 0.11 % 2017-01-01
1258 noe93720 0.31 % ** 0.11 % 2017-01-01
1259 norberto95 0.31 % ** 0.11 % 2017-01-01
1260 POET 0.31 % ** 0.11 % 2017-01-01
1261 Quickstrike 0.31 % ** 0.11 % 2017-01-01
1262 Quinner82 0.31 % ** 0.11 % 2017-01-01
1263 robear 0.31 % ** 0.11 % 2017-01-01
1264 runningfool 0.31 % ** 0.11 % 2017-01-01
1265 sauer228 0.31 % ** 0.11 % 2017-01-01
1266 schofiml 0.31 % ** 0.11 % 2017-01-01
1267 scoker297 0.31 % ** 0.11 % 2017-01-01
1268 scott4401 0.31 % ** 0.11 % 2017-01-01
1269 sgammon 0.31 % ** 0.11 % 2017-01-01
1270 Show-me 0.31 % ** 0.11 % 2017-01-01
1271 smallzjohnson 0.31 % ** 0.11 % 2017-01-01
1272 sstasel 0.31 % ** 0.11 % 2017-01-01
1273 steelhead67 0.31 % ** 0.11 % 2017-01-01
1274 SteveOhh 0.31 % ** 0.11 % 2017-01-01
1275 tarchdeacon 0.31 % ** 0.11 % 2017-01-01
1276 TaterGator 0.31 % ** 0.11 % 2017-01-01
1277 texasrich 0.31 % ** 0.11 % 2017-01-01
1278 thegemp 0.31 % ** 0.11 % 2017-01-01
1279 timmy00578 0.31 % ** 0.11 % 2017-01-01
1280 TravelinTom 0.31 % ** 0.11 % 2017-01-01
1281 TSPGOD 0.31 % ** 0.11 % 2017-01-01
1282 tw9886 0.31 % ** 0.11 % 2017-01-01
1283 usm1811 0.31 % ** 0.11 % 2017-01-01
1284 vjhillsr 0.31 % ** 0.11 % 2017-01-01
1285 whitebear 0.31 % ** 0.11 % 2017-01-01
1286 WunderDog 0.31 % ** 0.11 % 2017-01-01
1287 yuriria 0.31 % ** 0.11 % 2017-01-01
1288 tip098 0.31 % ** 0.11 % 2017-01-01
1289 notbad 0.31 % ** 0.11 % 2017-01-01
1290 Dmen1218 0.31 % ** 0.11 % 2017-01-01
1291 rocker 0.31 % ** 0.11 % 2017-01-01
1292 borderj 0.31 % ** 0.11 % 2017-01-01
1293 wstuttle 0.31 % ** 0.11 % 2017-01-01
1294 inlineref 0.31 % ** 0.11 % 2017-01-01
1295 PF_chart_C 0.31 % ** 0.11 % 2017-01-01
1296 Sharkman 0.31 % ** 0.11 % 2017-01-01
1297 wealthbuilder 0.31 % ** 0.11 % 2017-01-01
1298 jrhutch 0.24 % 0.40 % 2017-01-01
1299 stbondar 0.23 % 0.03 % 2017-01-01
1300 jovialmadness 0.23 % 0.11 % 2017-01-01
Rank Username YTD Returns MTD Returns Start Date
1301 Udflyer01 0.21 % 0.22 % 2017-01-01
1302 TwoYrs2Go 0.14 % 0.11 % 2017-01-01
1303 UWQLI * 0.00 % 0.00 % 2017-02-17
1304 csstovall09 0.00 % ** 0.00 %